createdAt,value
2019-04-10T00:01:23.876Z,22.45
2019-04-10T00:03:56.765Z,26.70
2019-04-10T00:06:28.309Z,27.07
2019-04-10T00:09:00.898Z,23.38
2019-04-10T00:11:34.585Z,23.62
2019-04-10T00:14:06.731Z,25.15
2019-04-10T00:16:38.393Z,23.05
2019-04-10T00:19:10.669Z,24.75
2019-04-10T00:21:42.357Z,30.72
2019-04-10T00:24:14.268Z,27.05
2019-04-10T00:26:45.926Z,28.38
2019-04-10T00:29:18.249Z,29.00
2019-04-10T00:31:50.723Z,26.70
2019-04-10T00:34:23.257Z,29.75
2019-04-10T00:36:55.162Z,32.78
2019-04-10T00:39:26.731Z,30.15
2019-04-10T00:41:58.804Z,29.12
2019-04-10T00:44:30.453Z,28.40
2019-04-10T00:47:02.460Z,30.95
2019-04-10T00:49:34.101Z,28.98
2019-04-10T00:52:05.994Z,26.33
2019-04-10T00:54:37.548Z,23.70
2019-04-10T00:57:09.427Z,20.20
2019-04-10T00:59:42.159Z,24.37
2019-04-10T01:02:13.774Z,25.20
2019-04-10T01:04:45.322Z,22.30
2019-04-10T01:07:16.922Z,23.55
2019-04-10T01:09:48.533Z,27.02
2019-04-10T01:12:20.050Z,26.77
2019-04-10T01:14:51.557Z,25.80
2019-04-10T01:17:24.032Z,24.98
2019-04-10T01:19:56.506Z,24.00
2019-04-10T01:22:27.850Z,23.23
2019-04-10T01:25:00.277Z,21.70
2019-04-10T01:27:32.025Z,24.23
2019-04-10T01:30:04.294Z,21.23
2019-04-10T01:32:36.370Z,22.13
2019-04-10T01:35:08.536Z,20.90
2019-04-10T01:37:48.912Z,24.10
2019-04-10T01:40:13.093Z,22.58
2019-04-10T01:42:58.965Z,21.52
2019-04-10T01:45:17.803Z,21.75
2019-04-10T01:47:49.422Z,24.55
2019-04-10T01:50:22.143Z,21.35
2019-04-10T01:52:53.970Z,19.12
2019-04-10T01:55:28.877Z,18.67
2019-04-10T01:58:00.898Z,19.55
2019-04-10T02:00:34.140Z,18.60
2019-04-10T02:03:05.658Z,19.12
2019-04-10T02:05:36.983Z,24.65
2019-04-10T02:08:11.396Z,20.68
2019-04-10T02:10:42.544Z,16.50
2019-04-10T02:13:14.926Z,18.23
2019-04-10T02:15:46.556Z,17.50
2019-04-10T02:18:17.972Z,18.87
2019-04-10T02:20:49.492Z,18.37
2019-04-10T02:23:21.078Z,18.02
2019-04-10T02:25:52.839Z,19.27
2019-04-10T02:28:24.231Z,18.73
2019-04-10T02:30:56.660Z,18.12
2019-04-10T02:33:29.347Z,19.30
2019-04-10T02:36:01.599Z,21.07
2019-04-10T02:38:49.206Z,22.32
2019-04-10T02:41:08.501Z,21.27
2019-04-10T02:43:39.958Z,19.55
2019-04-10T02:46:11.504Z,22.80
2019-04-10T02:48:44.181Z,23.57
2019-04-10T02:51:15.708Z,22.52
2019-04-10T02:53:48.085Z,20.65
2019-04-10T02:56:21.642Z,21.05
2019-04-10T02:58:54.349Z,22.70
2019-04-10T03:01:27.230Z,22.73
2019-04-10T03:03:59.222Z,22.30
2019-04-10T03:06:31.215Z,20.32
2019-04-10T03:09:21.795Z,23.02
2019-04-10T03:11:36.238Z,22.32
2019-04-10T03:14:08.083Z,21.27
2019-04-10T03:16:39.578Z,22.07
2019-04-10T03:19:11.648Z,20.37
2019-04-10T03:21:45.026Z,22.35
2019-04-10T03:24:16.340Z,22.62
2019-04-10T03:26:48.018Z,23.42
2019-04-10T03:29:19.877Z,23.40
2019-04-10T03:31:54.697Z,23.70
2019-04-10T03:34:33.224Z,24.37
2019-04-10T03:37:04.349Z,25.25
2019-04-10T03:39:36.039Z,26.15
2019-04-10T03:42:08.533Z,22.62
2019-04-10T03:44:40.949Z,23.98
2019-04-10T03:47:13.256Z,23.42
2019-04-10T03:49:44.898Z,24.40
2019-04-10T03:52:18.930Z,28.80
2019-04-10T03:54:50.433Z,24.85
2019-04-10T03:57:22.628Z,23.65
2019-04-10T03:59:53.915Z,26.77
2019-04-10T04:02:25.498Z,25.90
2019-04-10T04:04:56.801Z,23.15
2019-04-10T04:07:28.669Z,24.02
2019-04-10T04:10:00.261Z,22.93
2019-04-10T04:12:32.842Z,26.45
2019-04-10T04:15:05.390Z,28.25
2019-04-10T04:17:36.639Z,25.48
2019-04-10T04:20:08.345Z,27.37
2019-04-10T04:22:39.726Z,27.32
2019-04-10T04:25:11.461Z,29.37
2019-04-10T04:27:42.703Z,26.68
2019-04-10T04:30:14.783Z,24.60
2019-04-10T04:32:46.299Z,27.55
2019-04-10T04:35:17.661Z,26.97
2019-04-10T04:37:50.491Z,24.70
2019-04-10T04:40:21.981Z,27.87
2019-04-10T04:42:53.947Z,30.12
2019-04-10T04:45:25.735Z,27.85
2019-04-10T04:47:57.623Z,28.10
2019-04-10T04:50:29.348Z,28.15
2019-04-10T04:53:00.647Z,24.77
2019-04-10T04:55:33.150Z,32.40
2019-04-10T04:58:04.482Z,23.62
2019-04-10T05:00:35.958Z,25.72
2019-04-10T05:03:07.770Z,24.23
2019-04-10T05:05:39.449Z,24.37
2019-04-10T05:08:10.795Z,25.77
2019-04-10T05:10:42.364Z,24.07
2019-04-10T05:13:13.799Z,25.10
2019-04-10T05:15:45.112Z,24.23
2019-04-10T05:18:16.705Z,26.42
2019-04-10T05:20:50.491Z,25.10
2019-04-10T05:23:22.368Z,25.57
2019-04-10T05:25:54.028Z,23.25
2019-04-10T05:28:26.594Z,25.52
2019-04-10T05:30:58.932Z,24.93
2019-04-10T05:33:30.999Z,26.23
2019-04-10T05:36:02.014Z,26.17
2019-04-10T05:38:33.455Z,28.47
2019-04-10T05:41:04.807Z,27.50
2019-04-10T05:43:36.238Z,26.90
2019-04-10T05:46:07.526Z,30.27
2019-04-10T05:48:39.768Z,28.37
2019-04-10T05:51:11.005Z,27.77
2019-04-10T05:53:42.997Z,29.57
2019-04-10T05:56:15.901Z,28.97
2019-04-10T05:58:47.083Z,27.17
2019-04-10T06:01:29.907Z,27.97
2019-04-10T06:03:51.039Z,26.70
2019-04-10T06:06:22.295Z,24.93
2019-04-10T06:08:53.357Z,27.07
2019-04-10T06:11:24.740Z,28.07
2019-04-10T06:13:56.919Z,27.07
2019-04-10T06:16:28.262Z,25.90
2019-04-10T06:18:59.784Z,22.80
2019-04-10T06:21:31.389Z,24.93
2019-04-10T06:24:03.868Z,25.23
2019-04-10T06:26:35.499Z,25.53
2019-04-10T06:29:06.794Z,24.57
2019-04-10T06:31:38.937Z,23.10
2019-04-10T06:34:11.143Z,26.70
2019-04-10T06:36:43.803Z,30.07
2019-04-10T06:39:16.432Z,27.93
2019-04-10T06:41:48.798Z,24.17
2019-04-10T06:44:21.803Z,28.03
2019-04-10T06:46:53.108Z,29.23
2019-04-10T06:49:24.865Z,31.57
2019-04-10T06:51:55.909Z,27.33
2019-04-10T06:54:26.981Z,27.93
2019-04-10T06:56:58.731Z,27.27
2019-04-10T06:59:30.467Z,26.97
2019-04-10T07:02:13.136Z,29.10
2019-04-10T07:04:44.229Z,24.60
2019-04-10T07:07:12.647Z,24.60
2019-04-10T07:09:42.058Z,23.70
2019-04-10T07:12:14.376Z,23.93
2019-04-10T07:14:49.096Z,25.20
2019-04-10T07:17:19.946Z,25.67
2019-04-10T07:19:51.411Z,27.30
2019-04-10T07:22:22.937Z,23.30
2019-04-10T07:24:54.485Z,28.57
2019-04-10T07:27:26.071Z,27.23
2019-04-10T07:29:59.539Z,25.30
2019-04-10T07:32:30.925Z,31.23
2019-04-10T07:35:03.285Z,27.37
2019-04-10T07:37:36.008Z,28.13
2019-04-10T07:40:08.897Z,27.17
2019-04-10T07:42:41.871Z,27.50
2019-04-10T07:45:13.036Z,30.33
2019-04-10T07:47:44.173Z,30.17
2019-04-10T07:50:16.510Z,29.20
2019-04-10T07:52:47.919Z,27.87
2019-04-10T07:55:19.104Z,27.23
2019-04-10T07:57:51.819Z,27.57
2019-04-10T08:00:25.400Z,28.77
2019-04-10T08:02:57.623Z,26.20
2019-04-10T08:05:29.588Z,28.53
2019-04-10T08:08:01.036Z,23.30
2019-04-10T08:10:32.774Z,24.40
2019-04-10T08:13:04.585Z,23.07
2019-04-10T08:15:35.789Z,21.33
2019-04-10T08:18:07.123Z,23.40
2019-04-10T08:20:38.408Z,22.37
2019-04-10T08:23:10.204Z,21.77
2019-04-10T08:25:43.118Z,21.13
2019-04-10T08:28:15.380Z,21.07
2019-04-10T08:30:46.572Z,22.03
2019-04-10T08:33:18.122Z,20.63
2019-04-10T08:35:49.528Z,20.23
2019-04-10T08:38:21.827Z,20.60
2019-04-10T08:40:53.037Z,20.63
2019-04-10T08:43:24.994Z,20.17
2019-04-10T08:45:56.852Z,20.13
2019-04-10T08:48:30.121Z,20.67
2019-04-10T08:51:01.039Z,21.67
2019-04-10T08:53:32.029Z,20.03
2019-04-10T08:56:04.426Z,21.03
2019-04-10T08:58:35.561Z,21.00
2019-04-10T09:01:07.218Z,21.20
2019-04-10T09:03:39.216Z,20.23
2019-04-10T09:06:11.306Z,23.20
2019-04-10T09:08:43.600Z,23.13
2019-04-10T09:11:23.834Z,24.73
2019-04-10T09:13:48.615Z,42.63
2019-04-10T09:16:20.437Z,29.23
2019-04-10T09:18:51.657Z,21.50
2019-04-10T09:21:23.469Z,22.23
2019-04-10T09:23:57.288Z,20.33
2019-04-10T09:26:28.626Z,22.80
2019-04-10T09:28:59.770Z,21.03
2019-04-10T09:31:31.556Z,20.97
2019-04-10T09:34:03.764Z,20.60
2019-04-10T09:36:35.510Z,18.50
2019-04-10T09:39:09.563Z,18.97
2019-04-10T09:41:41.854Z,17.80
2019-04-10T09:44:14.355Z,18.27
2019-04-10T09:46:45.687Z,17.27
2019-04-10T09:49:16.709Z,18.50
2019-04-10T09:51:48.881Z,16.43
2019-04-10T09:54:20.062Z,16.93
2019-04-10T09:56:51.290Z,15.57
2019-04-10T09:59:34.910Z,16.90
2019-04-10T10:01:56.330Z,13.50
2019-04-10T10:04:27.720Z,13.40
2019-04-10T10:06:59.816Z,13.57
2019-04-10T10:09:30.788Z,15.53
2019-04-10T10:12:03.165Z,12.77
2019-04-10T10:14:34.326Z,14.10
2019-04-10T10:17:06.510Z,13.63
2019-04-10T10:19:39.152Z,14.63
2019-04-10T10:22:10.328Z,15.40
2019-04-10T10:24:42.630Z,13.47
2019-04-10T10:27:13.827Z,15.77
2019-04-10T10:29:44.795Z,14.60
2019-04-10T10:32:17.129Z,14.47
2019-04-10T10:34:48.237Z,13.60
2019-04-10T10:37:19.279Z,13.80
2019-04-10T10:39:51.540Z,15.17
2019-04-10T10:42:23.424Z,13.90
2019-04-10T10:44:54.737Z,14.93
2019-04-10T10:47:26.302Z,13.27
2019-04-10T10:49:57.749Z,14.07
2019-04-10T10:52:29.059Z,15.33
2019-04-10T10:55:01.052Z,15.43
2019-04-10T10:57:33.325Z,14.40
2019-04-10T11:00:06.193Z,19.30
2019-04-10T11:02:37.976Z,15.27
2019-04-10T11:05:10.637Z,15.43
2019-04-10T11:07:42.879Z,13.60
2019-04-10T11:10:14.811Z,14.10
2019-04-10T11:12:46.596Z,14.00
2019-04-10T11:15:18.589Z,14.70
2019-04-10T11:17:50.130Z,14.37
2019-04-10T11:20:21.645Z,15.17
2019-04-10T11:22:53.629Z,16.73
2019-04-10T11:25:26.123Z,15.43
2019-04-10T11:27:58.465Z,14.47
2019-04-10T11:30:29.944Z,13.77
2019-04-10T11:33:02.529Z,14.93
2019-04-10T11:35:33.666Z,14.37
2019-04-10T11:38:05.827Z,17.60
2019-04-10T11:40:38.877Z,17.97
2019-04-10T11:43:12.323Z,16.07
2019-04-10T11:45:49.097Z,15.57
2019-04-10T11:48:18.215Z,15.30
2019-04-10T11:50:51.013Z,17.83
2019-04-10T11:53:24.015Z,15.77
2019-04-10T11:55:56.995Z,13.60
2019-04-10T11:58:29.096Z,13.70
2019-04-10T12:01:02.500Z,13.57
2019-04-10T12:03:34.948Z,14.53
2019-04-10T12:06:07.170Z,14.00
2019-04-10T12:09:04.453Z,14.10
2019-04-10T12:11:15.509Z,15.07
2019-04-10T12:13:44.264Z,16.40
2019-04-10T12:16:15.303Z,14.03
2019-04-10T12:18:46.797Z,14.63
2019-04-10T12:21:18.117Z,15.23
2019-04-10T12:23:50.205Z,14.70
2019-04-10T12:26:22.059Z,14.50
2019-04-10T12:28:53.962Z,15.03
2019-04-10T12:31:26.011Z,14.70
2019-04-10T12:33:57.420Z,14.83
2019-04-10T12:36:28.782Z,13.10
2019-04-10T12:39:00.363Z,11.77
2019-04-10T12:41:33.239Z,11.43
2019-04-10T12:44:05.603Z,10.40
2019-04-10T12:46:37.327Z,11.20
2019-04-10T12:49:09.480Z,15.00
2019-04-10T12:51:41.555Z,11.70
2019-04-10T12:54:12.827Z,14.43
2019-04-10T12:56:43.779Z,12.07
2019-04-10T12:59:15.236Z,14.27
2019-04-10T13:01:47.332Z,14.63
2019-04-10T13:04:20.798Z,12.10
2019-04-10T13:06:52.786Z,12.47
2019-04-10T13:09:24.273Z,11.63
2019-04-10T13:12:00.693Z,14.40
2019-04-10T13:14:32.796Z,12.97
2019-04-10T13:17:04.716Z,11.90
2019-04-10T13:19:35.791Z,10.90
2019-04-10T13:22:07.571Z,18.00
2019-04-10T13:24:38.885Z,12.30
2019-04-10T13:27:10.403Z,12.07
2019-04-10T13:29:42.654Z,14.50
2019-04-10T13:32:13.969Z,11.13
2019-04-10T13:34:45.779Z,11.03
2019-04-10T13:37:17.983Z,12.70
2019-04-10T13:39:49.062Z,13.03
2019-04-10T13:42:21.029Z,15.03
2019-04-10T13:44:52.913Z,15.53
2019-04-10T13:47:24.285Z,12.40
2019-04-10T13:49:55.631Z,14.23
2019-04-10T13:52:27.895Z,15.23
2019-04-10T13:54:59.066Z,13.03
2019-04-10T13:57:30.685Z,18.50
2019-04-10T14:00:02.129Z,13.57
2019-04-10T14:02:37.543Z,12.97
2019-04-10T14:05:11.743Z,14.17
2019-04-10T14:07:44.238Z,11.57
2019-04-10T14:10:16.667Z,13.63
2019-04-10T14:12:47.974Z,11.40
2019-04-10T14:15:20.202Z,12.00
2019-04-10T14:17:52.134Z,11.67
2019-04-10T14:20:24.107Z,12.30
2019-04-10T14:23:18.008Z,15.87
2019-04-10T14:26:24.513Z,13.23
2019-04-10T14:28:55.622Z,13.93
2019-04-10T14:31:32.220Z,14.03
2019-04-10T14:34:04.930Z,13.67
2019-04-10T14:36:36.665Z,17.30
2019-04-10T14:39:17.632Z,19.27
2019-04-10T14:41:46.423Z,16.07
2019-04-10T14:44:17.905Z,19.20
2019-04-10T14:46:49.685Z,17.30
2019-04-10T14:49:20.924Z,17.87
2019-04-10T14:51:52.659Z,17.13
2019-04-10T14:54:23.928Z,15.73
2019-04-10T14:56:55.327Z,17.50
2019-04-10T14:59:26.306Z,15.23
2019-04-10T15:01:58.044Z,18.30
2019-04-10T15:04:29.166Z,13.73
2019-04-10T15:07:01.743Z,15.67
2019-04-10T15:09:33.129Z,16.40
2019-04-10T15:12:04.937Z,13.97
2019-04-10T15:14:36.135Z,16.77
2019-04-10T15:17:09.180Z,15.47
2019-04-10T15:19:40.837Z,17.93
2019-04-10T15:22:11.972Z,16.63
2019-04-10T15:24:43.325Z,16.97
2019-04-10T15:27:15.300Z,13.97
2019-04-10T15:29:47.103Z,16.63
2019-04-10T15:32:20.546Z,15.53
2019-04-10T15:34:51.593Z,16.03
2019-04-10T15:37:22.940Z,18.43
2019-04-10T15:39:54.453Z,18.07
2019-04-10T15:42:26.041Z,26.27
2019-04-10T15:45:00.596Z,16.00
2019-04-10T15:47:33.418Z,16.43
2019-04-10T15:50:06.909Z,19.60
2019-04-10T15:52:39.790Z,15.57
2019-04-10T15:55:13.349Z,17.00
2019-04-10T15:57:53.157Z,15.53
2019-04-10T16:00:21.213Z,16.40
2019-04-10T16:02:53.885Z,15.90
2019-04-10T16:05:25.821Z,17.43
2019-04-10T16:07:57.179Z,16.30
2019-04-10T16:10:55.125Z,15.90
2019-04-10T16:13:36.766Z,17.33
2019-04-10T16:16:40.349Z,18.00
2019-04-10T16:19:34.518Z,17.00
2019-04-10T16:22:14.897Z,18.33
2019-04-10T16:24:47.140Z,16.87
2019-04-10T16:27:20.355Z,19.67
2019-04-10T16:29:51.558Z,15.03
2019-04-10T16:32:24.430Z,19.57
2019-04-10T16:34:56.789Z,19.07
2019-04-10T16:37:28.203Z,15.17
2019-04-10T16:40:04.073Z,16.40
2019-04-10T16:42:34.832Z,16.80
2019-04-10T16:45:08.088Z,18.50
2019-04-10T16:47:39.507Z,18.00
2019-04-10T16:50:11.258Z,16.30
2019-04-10T16:52:42.470Z,16.70
2019-04-10T16:55:15.680Z,16.63
2019-04-10T16:57:47.318Z,14.73
2019-04-10T17:00:20.621Z,16.13
2019-04-10T17:02:52.646Z,17.47
2019-04-10T17:05:24.806Z,20.30
2019-04-10T17:07:57.316Z,17.50
2019-04-10T17:10:29.791Z,26.43
2019-04-10T17:13:02.368Z,23.97
2019-04-10T17:15:36.411Z,29.73
2019-04-10T17:18:08.739Z,24.67
2019-04-10T17:20:42.740Z,27.47
2019-04-10T17:23:16.490Z,27.93
2019-04-10T17:25:48.739Z,20.13
2019-04-10T17:28:22.942Z,23.37
2019-04-10T17:30:53.905Z,24.47
2019-04-10T17:33:26.749Z,29.43
2019-04-10T17:36:00.146Z,24.73
2019-04-10T17:38:31.846Z,24.63
2019-04-10T17:41:04.499Z,24.83
2019-04-10T17:43:37.109Z,28.13
2019-04-10T17:46:09.226Z,32.07
2019-04-10T17:48:42.040Z,32.07
2019-04-10T17:51:14.076Z,43.23
2019-04-10T17:53:45.428Z,35.03
2019-04-10T17:56:16.834Z,35.63
2019-04-10T17:58:48.143Z,33.90
2019-04-10T18:01:21.126Z,38.70
2019-04-10T18:03:57.266Z,39.90
2019-04-10T18:06:25.632Z,40.10
2019-04-10T18:08:57.137Z,45.70
2019-04-10T18:11:28.322Z,54.07
2019-04-10T18:14:00.786Z,52.70
2019-04-10T18:16:32.058Z,54.03
2019-04-10T18:19:04.308Z,55.50
2019-04-10T18:21:35.422Z,59.83
2019-04-10T18:24:06.618Z,53.80
2019-04-10T18:26:37.707Z,61.13
2019-04-10T18:29:09.990Z,60.50
2019-04-10T18:31:41.144Z,60.57
2019-04-10T18:34:13.833Z,64.23
2019-04-10T18:36:46.420Z,63.70
2019-04-10T18:39:18.979Z,54.13
2019-04-10T18:41:49.961Z,53.80
2019-04-10T18:44:21.245Z,51.23
2019-04-10T18:46:52.287Z,57.33
2019-04-10T18:49:23.705Z,60.10
2019-04-10T18:51:56.262Z,60.13
2019-04-10T18:54:27.273Z,56.03
2019-04-10T18:56:59.709Z,50.27
2019-04-10T19:00:08.092Z,46.57
2019-04-10T19:03:01.298Z,59.57
2019-04-10T19:05:36.939Z,50.13
2019-04-10T19:08:11.152Z,49.67
2019-04-10T19:10:41.422Z,51.23
2019-04-10T19:13:12.978Z,45.20
2019-04-10T19:15:44.849Z,45.60
2019-04-10T19:18:16.522Z,42.63
2019-04-10T19:20:49.141Z,45.70
2019-04-10T19:23:21.007Z,45.30
2019-04-10T19:25:52.975Z,41.53
2019-04-10T19:28:32.292Z,39.03
2019-04-10T19:31:12.916Z,34.93
2019-04-10T19:33:37.306Z,41.40
2019-04-10T19:36:09.835Z,40.10
2019-04-10T19:38:41.906Z,35.47
2019-04-10T19:41:23.372Z,35.77
2019-04-10T19:43:46.406Z,34.97
2019-04-10T19:46:17.581Z,39.20
2019-04-10T19:48:50.786Z,31.87
2019-04-10T19:51:21.810Z,36.67
2019-04-10T19:53:53.423Z,37.57
2019-04-10T19:56:24.809Z,34.00
2019-04-10T19:58:56.541Z,32.77
2019-04-10T20:01:30.050Z,32.90
2019-04-10T20:04:02.023Z,33.23
2019-04-10T20:06:33.433Z,32.53
2019-04-10T20:09:06.435Z,28.20
2019-04-10T20:11:44.619Z,28.83
2019-04-10T20:14:13.738Z,27.87
2019-04-10T20:16:44.168Z,30.13
2019-04-10T20:19:15.547Z,27.07
2019-04-10T20:21:46.818Z,26.90
2019-04-10T20:24:18.876Z,26.27
2019-04-10T20:26:50.383Z,26.17
2019-04-10T20:29:21.756Z,28.53
2019-04-10T20:31:55.285Z,28.70
2019-04-10T20:34:27.460Z,28.90
2019-04-10T20:37:05.889Z,28.83
2019-04-10T20:39:33.525Z,27.73
2019-04-10T20:42:05.729Z,34.93
2019-04-10T20:44:38.240Z,29.33
2019-04-10T20:47:10.785Z,33.90
2019-04-10T20:49:42.930Z,32.53
2019-04-10T20:52:14.679Z,36.77
2019-04-10T20:54:46.885Z,48.37
2019-04-10T20:57:19.202Z,42.17
2019-04-10T20:59:51.009Z,37.10
2019-04-10T21:02:22.339Z,67.27
2019-04-10T21:05:00.517Z,35.80
2019-04-10T21:07:27.596Z,37.13
2019-04-10T21:09:58.863Z,35.97
2019-04-10T21:12:30.399Z,35.77
2019-04-10T21:15:01.494Z,39.30
2019-04-10T21:17:34.484Z,36.53
2019-04-10T21:20:07.886Z,34.00
2019-04-10T21:22:40.469Z,28.00
2019-04-10T21:25:11.997Z,32.23
2019-04-10T21:27:44.075Z,30.68
2019-04-10T21:30:52.981Z,36.23
2019-04-10T21:33:46.998Z,33.78
2019-04-10T21:36:18.717Z,25.57
2019-04-10T21:38:50.660Z,29.90
2019-04-10T21:41:22.089Z,30.70
2019-04-10T21:43:53.890Z,30.08
2019-04-10T21:46:25.220Z,28.60
2019-04-10T21:48:57.370Z,27.52
2019-04-10T21:51:28.810Z,29.32
2019-04-10T21:54:00.226Z,29.85
2019-04-10T21:56:31.805Z,28.45
2019-04-10T21:59:05.371Z,27.60
2019-04-10T22:01:38.103Z,28.07
2019-04-10T22:04:10.287Z,34.38
2019-04-10T22:07:01.477Z,25.20
2019-04-10T22:09:52.921Z,24.47
2019-04-10T22:12:31.589Z,23.85
2019-04-10T22:15:00.168Z,26.30
2019-04-10T22:17:32.168Z,25.17
2019-04-10T22:20:03.757Z,23.38
2019-04-10T22:22:35.265Z,23.55
2019-04-10T22:25:07.882Z,24.63
2019-04-10T22:27:39.526Z,23.52
2019-04-10T22:30:12.452Z,21.93
2019-04-10T22:32:44.405Z,23.05
2019-04-10T22:35:15.865Z,22.58
2019-04-10T22:37:48.494Z,26.50
2019-04-10T22:40:20.080Z,24.10
2019-04-10T22:42:51.597Z,22.02
2019-04-10T22:45:29.320Z,23.30
2019-04-10T22:48:02.172Z,25.17
2019-04-10T22:50:34.455Z,22.62
2019-04-10T22:53:06.893Z,24.07
2019-04-10T22:55:38.459Z,23.73
2019-04-10T22:58:10.781Z,23.85
2019-04-10T23:00:42.554Z,24.52
2019-04-10T23:03:14.209Z,27.37
2019-04-10T23:05:46.869Z,27.00
2019-04-10T23:08:18.521Z,23.00
2019-04-10T23:10:51.157Z,22.15
2019-04-10T23:13:23.726Z,23.62
2019-04-10T23:15:56.475Z,25.32
2019-04-10T23:18:28.147Z,26.15
2019-04-10T23:21:00.601Z,23.85
2019-04-10T23:23:32.810Z,27.20
2019-04-10T23:26:04.844Z,22.65
2019-04-10T23:28:37.719Z,24.47
2019-04-10T23:31:10.061Z,25.88
2019-04-10T23:33:41.950Z,25.70
2019-04-10T23:36:13.958Z,22.50
2019-04-10T23:38:45.868Z,26.45
2019-04-10T23:41:17.756Z,27.98
2019-04-10T23:43:49.120Z,22.98
2019-04-10T23:46:20.335Z,23.77
2019-04-10T23:48:52.929Z,23.07
2019-04-10T23:51:25.197Z,23.70
2019-04-10T23:53:57.214Z,22.50
2019-04-10T23:56:29.426Z,24.60
2019-04-10T23:59:01.143Z,21.80
